createdAt,value
2023-06-17T00:00:58.271Z,100.00
2023-06-17T00:03:25.473Z,100.00
2023-06-17T00:05:52.942Z,100.00
2023-06-17T00:08:20.937Z,100.00
2023-06-17T00:10:48.241Z,100.00
2023-06-17T00:13:20.336Z,100.00
2023-06-17T00:15:51.955Z,100.00
2023-06-17T00:18:20.829Z,100.00
2023-06-17T00:20:49.619Z,100.00
2023-06-17T00:23:16.904Z,100.00
2023-06-17T00:25:44.075Z,100.00
2023-06-17T00:28:11.276Z,100.00
2023-06-17T00:30:38.711Z,100.00
2023-06-17T00:33:06.455Z,100.00
2023-06-17T00:35:34.789Z,100.00
2023-06-17T00:38:02.229Z,100.00
2023-06-17T00:40:29.287Z,100.00
2023-06-17T00:42:56.296Z,100.00
2023-06-17T00:45:23.319Z,100.00
2023-06-17T00:47:51.621Z,100.00
2023-06-17T00:50:19.636Z,100.00
2023-06-17T00:52:51.622Z,100.00
2023-06-17T00:55:19.193Z,100.00
2023-06-17T00:57:48.775Z,100.00
2023-06-17T01:00:16.702Z,100.00
2023-06-17T01:02:46.332Z,100.00
2023-06-17T01:05:17.876Z,100.00
2023-06-17T01:08:16.126Z,100.00
2023-06-17T01:10:52.773Z,100.00
2023-06-17T01:13:20.390Z,100.00
2023-06-17T01:15:48.484Z,100.00
2023-06-17T01:18:19.113Z,100.00
2023-06-17T01:20:52.793Z,100.00
2023-06-17T01:23:22.447Z,100.00
2023-06-17T01:25:50.801Z,100.00
2023-06-17T01:28:20.470Z,100.00
2023-06-17T01:30:49.213Z,100.00
2023-06-17T01:33:17.183Z,100.00
2023-06-17T01:36:01.600Z,100.00
2023-06-17T01:39:05.141Z,100.00
2023-06-17T01:41:39.860Z,100.00
2023-06-17T01:44:09.804Z,100.00
2023-06-17T01:46:38.469Z,100.00
2023-06-17T01:49:05.572Z,100.00
2023-06-17T01:51:32.619Z,100.00
2023-06-17T01:53:59.650Z,100.00
2023-06-17T01:56:26.764Z,100.00
2023-06-17T01:58:53.823Z,100.00
2023-06-17T02:01:21.738Z,100.00
2023-06-17T02:03:48.868Z,100.00
2023-06-17T02:06:17.412Z,100.00
2023-06-17T02:08:45.322Z,100.00
2023-06-17T02:11:12.735Z,100.00
2023-06-17T02:13:39.765Z,100.00
2023-06-17T02:16:06.863Z,100.00
2023-06-17T02:18:34.835Z,100.00
2023-06-17T02:21:02.854Z,100.00
2023-06-17T02:23:30.654Z,100.00
2023-06-17T02:25:58.476Z,100.00
2023-06-17T02:28:25.781Z,100.00
2023-06-17T02:30:52.889Z,100.00
2023-06-17T02:33:20.023Z,100.00
2023-06-17T02:35:47.349Z,100.00
2023-06-17T02:38:15.285Z,100.00
2023-06-17T02:40:42.355Z,100.00
2023-06-17T02:43:09.424Z,100.00
2023-06-17T02:45:36.395Z,100.00
2023-06-17T02:48:03.735Z,100.00
2023-06-17T02:50:30.830Z,100.00
2023-06-17T02:52:57.928Z,100.00
2023-06-17T02:55:26.725Z,100.00
2023-06-17T02:57:54.376Z,100.00
2023-06-17T03:00:22.066Z,100.00
2023-06-17T03:02:50.194Z,100.00
2023-06-17T03:05:18.042Z,100.00
2023-06-17T03:07:46.947Z,100.00
2023-06-17T03:10:14.035Z,100.00
2023-06-17T03:12:41.021Z,100.00
2023-06-17T03:15:09.700Z,100.00
2023-06-17T03:17:38.416Z,100.00
2023-06-17T03:20:09.623Z,100.00
2023-06-17T03:22:36.701Z,100.00
2023-06-17T03:25:04.245Z,100.00
2023-06-17T03:27:31.281Z,100.00
2023-06-17T03:29:58.303Z,100.00
2023-06-17T03:32:25.309Z,100.00
2023-06-17T03:34:54.346Z,100.00
2023-06-17T03:37:22.007Z,100.00
2023-06-17T03:39:49.044Z,100.00
2023-06-17T03:42:17.516Z,100.00
2023-06-17T03:44:44.546Z,100.00
2023-06-17T03:47:11.904Z,100.00
2023-06-17T03:49:38.945Z,100.00
2023-06-17T03:52:06.762Z,100.00
2023-06-17T03:54:33.899Z,100.00
2023-06-17T03:57:01.097Z,100.00
2023-06-17T03:59:28.202Z,100.00
2023-06-17T04:01:55.328Z,100.00
2023-06-17T04:04:23.152Z,100.00
2023-06-17T04:06:50.673Z,100.00
2023-06-17T04:09:18.083Z,100.00
2023-06-17T04:11:45.236Z,100.00
2023-06-17T04:14:12.286Z,100.00
2023-06-17T04:16:39.381Z,100.00
2023-06-17T04:19:06.933Z,100.00
2023-06-17T04:21:34.230Z,100.00
2023-06-17T04:24:01.556Z,100.00
2023-06-17T04:26:29.349Z,100.00
2023-06-17T04:28:56.729Z,100.00
2023-06-17T04:31:24.127Z,100.00
2023-06-17T04:33:51.097Z,100.00
2023-06-17T04:36:18.721Z,100.00
2023-06-17T04:38:46.041Z,100.00
2023-06-17T04:41:13.357Z,100.00
2023-06-17T04:43:41.256Z,100.00
2023-06-17T04:46:09.549Z,100.00
2023-06-17T04:48:38.515Z,100.00
2023-06-17T04:51:07.177Z,100.00
2023-06-17T04:53:34.335Z,100.00
2023-06-17T04:56:01.705Z,100.00
2023-06-17T04:58:28.700Z,100.00
2023-06-17T05:00:55.750Z,100.00
2023-06-17T05:03:22.809Z,100.00
2023-06-17T05:05:49.910Z,100.00
2023-06-17T05:08:16.889Z,100.00
2023-06-17T05:10:44.037Z,100.00
2023-06-17T05:13:11.046Z,100.00
2023-06-17T05:15:38.070Z,100.00
2023-06-17T05:18:05.263Z,100.00
2023-06-17T05:20:32.331Z,100.00
2023-06-17T05:22:59.355Z,100.00
2023-06-17T05:25:26.422Z,100.00
2023-06-17T05:27:53.431Z,100.00
2023-06-17T05:30:20.676Z,100.00
2023-06-17T05:32:47.950Z,100.00
2023-06-17T05:35:15.021Z,100.00
2023-06-17T05:37:42.034Z,100.00
2023-06-17T05:40:09.785Z,100.00
2023-06-17T05:42:36.774Z,100.00
2023-06-17T05:45:03.928Z,100.00
2023-06-17T05:47:31.164Z,100.00
2023-06-17T05:49:58.165Z,100.00
2023-06-17T05:52:25.456Z,100.00
2023-06-17T05:54:52.453Z,100.00
2023-06-17T05:57:19.471Z,100.00
2023-06-17T05:59:46.484Z,100.00
2023-06-17T06:02:13.521Z,100.00
2023-06-17T06:04:40.588Z,100.00
2023-06-17T06:07:08.676Z,100.00
2023-06-17T06:09:35.816Z,100.00
2023-06-17T06:12:02.892Z,100.00
2023-06-17T06:14:29.948Z,100.00
2023-06-17T06:16:56.935Z,100.00
2023-06-17T06:19:24.345Z,100.00
2023-06-17T06:21:51.376Z,100.00
2023-06-17T06:24:18.418Z,100.00
2023-06-17T06:26:45.544Z,100.00
2023-06-17T06:29:14.490Z,100.00
2023-06-17T06:31:44.555Z,100.00
2023-06-17T06:34:11.821Z,100.00
2023-06-17T06:36:38.841Z,100.00
2023-06-17T06:39:05.886Z,100.00
2023-06-17T06:41:33.009Z,100.00
2023-06-17T06:44:00.048Z,100.00
2023-06-17T06:46:27.416Z,100.00
2023-06-17T06:48:54.687Z,100.00
2023-06-17T06:51:21.944Z,100.00
2023-06-17T06:53:50.050Z,100.00
2023-06-17T06:56:17.081Z,100.00
2023-06-17T06:58:44.100Z,100.00
2023-06-17T07:01:11.193Z,100.00
2023-06-17T07:03:38.571Z,100.00
2023-06-17T07:06:05.778Z,100.00
2023-06-17T07:08:32.824Z,100.00
2023-06-17T07:10:59.830Z,100.00
2023-06-17T07:13:27.585Z,100.00
2023-06-17T07:15:54.641Z,100.00
2023-06-17T07:18:21.654Z,100.00
2023-06-17T07:23:15.533Z,97.22
2023-06-17T07:25:42.564Z,91.49
2023-06-17T07:28:09.820Z,91.55
2023-06-17T07:30:36.913Z,93.08
2023-06-17T07:33:04.938Z,91.39
2023-06-17T07:35:32.088Z,88.34
2023-06-17T07:37:59.323Z,82.20
2023-06-17T07:40:26.819Z,87.13
2023-06-17T07:42:53.860Z,80.57
2023-06-17T07:45:21.051Z,81.27
2023-06-17T07:47:49.340Z,80.58
2023-06-17T07:50:16.471Z,75.38
2023-06-17T07:52:43.671Z,77.86
2023-06-17T07:55:11.915Z,77.96
2023-06-17T07:57:39.110Z,79.50
2023-06-17T08:00:11.368Z,74.33
2023-06-17T08:02:38.466Z,75.34
2023-06-17T08:05:06.113Z,74.84
2023-06-17T08:07:33.157Z,72.95
2023-06-17T08:10:00.194Z,71.18
2023-06-17T08:12:27.280Z,73.06
2023-06-17T08:14:54.347Z,70.84
2023-06-17T08:17:22.027Z,72.06
2023-06-17T08:19:49.092Z,66.92
2023-06-17T08:22:16.286Z,68.50
2023-06-17T08:24:43.415Z,66.46
2023-06-17T08:27:13.305Z,66.40
2023-06-17T08:29:41.217Z,67.82
2023-06-17T08:32:08.563Z,61.99
2023-06-17T08:34:36.318Z,63.71
2023-06-17T08:37:05.924Z,59.36
2023-06-17T08:39:33.312Z,57.93
2023-06-17T08:42:00.827Z,59.44
2023-06-17T08:44:32.920Z,61.03
2023-06-17T08:47:06.469Z,59.05
2023-06-17T08:49:34.963Z,56.91
2023-06-17T08:52:03.631Z,57.61
2023-06-17T08:54:41.203Z,53.03
2023-06-17T08:57:14.063Z,52.91
2023-06-17T08:59:44.491Z,53.65
2023-06-17T09:02:12.007Z,51.86
2023-06-17T09:04:40.611Z,52.13
2023-06-17T09:07:10.823Z,51.46
2023-06-17T09:09:38.597Z,49.71
2023-06-17T09:12:07.354Z,49.34
2023-06-17T09:14:35.402Z,50.90
2023-06-17T09:17:04.169Z,49.90
2023-06-17T09:19:33.684Z,51.33
2023-06-17T09:22:18.658Z,51.15
2023-06-17T09:24:47.475Z,48.72
2023-06-17T09:27:23.865Z,48.36
2023-06-17T09:30:14.522Z,48.99
2023-06-17T09:32:44.234Z,48.44
2023-06-17T09:35:18.253Z,50.05
2023-06-17T09:38:03.107Z,46.84
2023-06-17T09:40:34.892Z,47.73
2023-06-17T09:43:25.069Z,45.42
2023-06-17T09:46:04.251Z,45.72
2023-06-17T09:48:36.823Z,45.61
2023-06-17T09:51:10.862Z,45.38
2023-06-17T09:53:39.104Z,45.75
2023-06-17T09:56:12.211Z,44.82
2023-06-17T09:58:44.023Z,44.78
2023-06-17T10:01:13.232Z,45.97
2023-06-17T10:03:43.727Z,43.97
2023-06-17T10:06:13.135Z,45.16
2023-06-17T10:08:50.246Z,43.98
2023-06-17T10:11:21.402Z,42.59
2023-06-17T10:13:57.355Z,44.14
2023-06-17T10:16:29.338Z,43.07
2023-06-17T10:19:00.536Z,43.36
2023-06-17T10:21:30.566Z,43.77
2023-06-17T10:24:01.218Z,45.66
2023-06-17T10:26:32.067Z,43.14
2023-06-17T10:29:03.199Z,42.14
2023-06-17T10:31:33.161Z,45.74
2023-06-17T10:34:04.816Z,44.40
2023-06-17T10:36:37.350Z,42.98
2023-06-17T10:39:12.302Z,42.12
2023-06-17T10:41:39.401Z,43.07
2023-06-17T10:44:22.092Z,41.82
2023-06-17T10:46:52.373Z,40.27
2023-06-17T10:49:20.735Z,41.40
2023-06-17T10:51:57.931Z,42.07
2023-06-17T10:54:34.220Z,41.36
2023-06-17T10:57:07.722Z,41.53
2023-06-17T10:59:34.900Z,40.68
2023-06-17T11:02:10.171Z,39.17
2023-06-17T11:04:44.186Z,40.47
2023-06-17T11:07:14.577Z,37.87
2023-06-17T11:09:41.604Z,39.52
2023-06-17T11:12:09.211Z,40.21
2023-06-17T11:14:38.697Z,39.78
2023-06-17T11:17:06.044Z,40.54
2023-06-17T11:19:33.206Z,41.05
2023-06-17T11:22:04.517Z,40.27
2023-06-17T11:24:32.835Z,41.02
2023-06-17T11:27:01.607Z,39.33
2023-06-17T11:29:30.489Z,40.20
2023-06-17T11:32:02.264Z,39.88
2023-06-17T11:34:33.366Z,40.40
2023-06-17T11:37:03.357Z,38.41
2023-06-17T11:39:34.197Z,37.92
2023-06-17T11:42:03.585Z,38.35
2023-06-17T11:44:32.895Z,38.97
2023-06-17T11:47:10.767Z,38.73
2023-06-17T11:49:46.080Z,38.40
2023-06-17T11:52:15.164Z,39.90
2023-06-17T11:54:53.212Z,37.45
2023-06-17T11:57:23.729Z,38.83
2023-06-17T11:59:52.258Z,39.33
2023-06-17T12:02:20.299Z,37.78
2023-06-17T12:04:48.472Z,37.54
2023-06-17T12:07:15.805Z,37.51
2023-06-17T12:09:54.465Z,37.35
2023-06-17T12:12:33.759Z,37.65
2023-06-17T12:15:15.663Z,37.47
2023-06-17T12:17:54.419Z,38.03
2023-06-17T12:20:22.783Z,38.76
2023-06-17T12:22:52.302Z,37.25
2023-06-17T12:25:20.626Z,36.65
2023-06-17T12:27:48.131Z,36.61
2023-06-17T12:30:15.719Z,37.12
2023-06-17T12:32:44.324Z,37.91
2023-06-17T12:35:13.279Z,36.46
2023-06-17T12:37:45.168Z,36.47
2023-06-17T12:40:12.891Z,35.60
2023-06-17T12:42:40.761Z,35.18
2023-06-17T12:45:09.034Z,35.07
2023-06-17T12:47:38.091Z,35.66
2023-06-17T12:50:09.196Z,35.27
2023-06-17T12:52:36.219Z,36.18
2023-06-17T12:55:06.142Z,36.77
2023-06-17T12:57:34.675Z,35.69
2023-06-17T13:00:02.788Z,34.40
2023-06-17T13:02:32.546Z,34.79
2023-06-17T13:04:59.724Z,34.69
2023-06-17T13:07:28.191Z,34.57
2023-06-17T13:09:57.067Z,34.46
2023-06-17T13:12:24.208Z,35.59
2023-06-17T13:14:51.218Z,34.62
2023-06-17T13:17:18.543Z,33.80
2023-06-17T13:19:45.695Z,34.49
2023-06-17T13:22:13.473Z,34.85
2023-06-17T13:24:40.732Z,35.25
2023-06-17T13:27:08.901Z,34.38
2023-06-17T13:29:36.258Z,35.39
2023-06-17T13:32:04.395Z,33.39
2023-06-17T13:34:31.448Z,34.65
2023-06-17T13:36:58.646Z,34.42
2023-06-17T13:39:25.764Z,35.28
2023-06-17T13:41:53.240Z,36.39
2023-06-17T13:44:20.261Z,35.07
2023-06-17T13:46:48.680Z,35.24
2023-06-17T13:49:16.202Z,35.02
2023-06-17T13:51:43.176Z,34.94
2023-06-17T13:54:10.454Z,35.32
2023-06-17T13:56:37.505Z,35.08
2023-06-17T13:59:04.572Z,34.26
2023-06-17T14:01:31.663Z,34.36
2023-06-17T14:03:59.413Z,34.89
2023-06-17T14:06:27.017Z,34.72
2023-06-17T14:08:54.096Z,35.22
2023-06-17T14:11:23.459Z,34.81
2023-06-17T14:13:50.771Z,34.83
2023-06-17T14:16:18.392Z,34.54
2023-06-17T14:18:45.452Z,34.47
2023-06-17T14:21:34.199Z,33.96
2023-06-17T14:24:06.884Z,34.85
2023-06-17T14:26:41.014Z,35.06
2023-06-17T14:29:09.913Z,35.81
2023-06-17T14:31:37.940Z,35.11
2023-06-17T14:34:05.051Z,34.35
2023-06-17T14:36:32.352Z,34.54
2023-06-17T14:39:01.632Z,34.44
2023-06-17T14:41:30.146Z,34.13
2023-06-17T14:43:59.184Z,36.01
2023-06-17T14:46:26.253Z,34.88
2023-06-17T14:48:53.405Z,35.00
2023-06-17T14:51:20.589Z,35.92
2023-06-17T14:53:47.612Z,35.29
2023-06-17T14:56:29.686Z,37.51
2023-06-17T14:59:03.343Z,36.78
2023-06-17T15:01:35.394Z,39.30
2023-06-17T15:04:03.521Z,35.94
2023-06-17T15:06:31.690Z,35.71
2023-06-17T15:09:27.181Z,34.64
2023-06-17T15:11:57.461Z,34.87
2023-06-17T15:14:28.793Z,35.24
2023-06-17T15:16:56.232Z,37.13
2023-06-17T15:19:23.571Z,37.62
2023-06-17T15:21:51.688Z,37.30
2023-06-17T15:24:18.988Z,37.03
2023-06-17T15:26:47.436Z,35.42
2023-06-17T15:29:15.645Z,34.89
2023-06-17T15:31:43.201Z,33.56
2023-06-17T15:34:11.443Z,34.14
2023-06-17T15:36:38.565Z,36.24
2023-06-17T15:39:28.944Z,37.77
2023-06-17T15:41:56.221Z,37.05
2023-06-17T15:44:23.562Z,34.78
2023-06-17T15:46:51.694Z,36.95
2023-06-17T15:49:18.915Z,37.19
2023-06-17T15:51:45.987Z,39.51
2023-06-17T15:54:13.152Z,40.02
2023-06-17T15:56:40.758Z,35.50
2023-06-17T15:59:08.272Z,38.39
2023-06-17T16:01:35.486Z,38.63
2023-06-17T16:04:39.145Z,38.03
2023-06-17T16:07:11.940Z,36.28
2023-06-17T16:09:49.156Z,36.86
2023-06-17T16:12:17.734Z,35.45
2023-06-17T16:14:47.090Z,34.92
2023-06-17T16:17:14.440Z,35.27
2023-06-17T16:19:41.688Z,35.47
2023-06-17T16:22:11.527Z,35.36
2023-06-17T16:24:41.151Z,36.14
2023-06-17T16:27:09.559Z,37.73
2023-06-17T16:29:36.707Z,37.91
2023-06-17T16:32:04.623Z,37.33
2023-06-17T16:34:31.779Z,35.62
2023-06-17T16:36:58.919Z,35.19
2023-06-17T16:39:26.446Z,35.48
2023-06-17T16:41:53.996Z,35.58
2023-06-17T16:44:21.241Z,36.05
2023-06-17T16:46:48.703Z,37.60
2023-06-17T16:49:15.873Z,35.33
2023-06-17T16:51:42.975Z,36.91
2023-06-17T16:54:10.156Z,39.17
2023-06-17T16:56:37.567Z,37.21
2023-06-17T16:59:05.021Z,37.11
2023-06-17T17:01:32.277Z,37.25
2023-06-17T17:04:01.767Z,37.07
2023-06-17T17:06:34.205Z,37.20
2023-06-17T17:09:01.274Z,38.96
2023-06-17T17:11:28.329Z,38.65
2023-06-17T17:13:55.717Z,38.37
2023-06-17T17:16:23.490Z,37.67
2023-06-17T17:18:50.660Z,40.31
2023-06-17T17:21:18.047Z,38.07
2023-06-17T17:23:46.316Z,37.37
2023-06-17T17:26:13.924Z,37.68
2023-06-17T17:28:42.543Z,37.38
2023-06-17T17:31:10.245Z,37.78
2023-06-17T17:33:37.733Z,39.90
2023-06-17T17:36:05.147Z,41.76
2023-06-17T17:38:32.483Z,42.79
2023-06-17T17:40:59.501Z,41.00
2023-06-17T17:43:28.093Z,41.39
2023-06-17T17:45:56.870Z,40.47
2023-06-17T17:48:23.998Z,40.04
2023-06-17T17:50:51.152Z,39.74
2023-06-17T17:53:18.226Z,40.76
2023-06-17T17:55:45.457Z,40.24
2023-06-17T17:58:12.525Z,40.60
2023-06-17T18:00:39.647Z,40.98
2023-06-17T18:03:06.817Z,41.52
2023-06-17T18:05:33.870Z,40.52
2023-06-17T18:08:01.083Z,40.64
2023-06-17T18:10:28.266Z,40.95
2023-06-17T18:12:55.327Z,40.90
2023-06-17T18:15:22.470Z,41.54
2023-06-17T18:17:49.531Z,40.76
2023-06-17T18:20:16.606Z,41.70
2023-06-17T18:22:43.609Z,41.60
2023-06-17T18:25:11.202Z,41.43
2023-06-17T18:27:39.960Z,42.46
2023-06-17T18:30:08.633Z,42.34
2023-06-17T18:32:35.865Z,43.50
2023-06-17T18:35:03.799Z,42.38
2023-06-17T18:37:30.937Z,43.17
2023-06-17T18:39:58.220Z,43.24
2023-06-17T18:42:25.249Z,43.75
2023-06-17T18:44:52.491Z,43.52
2023-06-17T18:47:19.560Z,44.32
2023-06-17T18:49:48.142Z,43.20
2023-06-17T18:52:16.830Z,44.61
2023-06-17T18:54:43.910Z,43.53
2023-06-17T18:57:11.417Z,43.85
2023-06-17T18:59:38.399Z,44.79
2023-06-17T19:02:05.686Z,44.43
2023-06-17T19:04:32.641Z,44.79
2023-06-17T19:06:59.784Z,45.04
2023-06-17T19:09:27.488Z,45.59
2023-06-17T19:12:00.515Z,46.94
2023-06-17T19:14:27.939Z,47.30
2023-06-17T19:16:55.347Z,46.13
2023-06-17T19:19:22.420Z,46.73
2023-06-17T19:21:49.664Z,46.91
2023-06-17T19:24:18.485Z,47.47
2023-06-17T19:26:45.705Z,48.27
2023-06-17T19:29:12.772Z,49.66
2023-06-17T19:31:39.786Z,50.43
2023-06-17T19:34:06.840Z,51.48
2023-06-17T19:36:33.831Z,52.30
2023-06-17T19:39:00.817Z,51.28
2023-06-17T19:41:29.017Z,52.23
2023-06-17T19:43:57.694Z,54.22
2023-06-17T19:46:24.846Z,53.05
2023-06-17T19:48:51.998Z,54.12
2023-06-17T19:51:19.046Z,54.73
2023-06-17T19:53:46.228Z,56.18
2023-06-17T19:56:13.247Z,57.80
2023-06-17T19:58:40.557Z,58.27
2023-06-17T20:01:07.659Z,59.57
2023-06-17T20:03:34.969Z,59.80
2023-06-17T20:06:02.875Z,60.49
2023-06-17T20:08:30.766Z,62.69
2023-06-17T20:11:02.221Z,60.69
2023-06-17T20:13:29.277Z,62.12
2023-06-17T20:15:56.315Z,63.21
2023-06-17T20:18:23.484Z,62.98
2023-06-17T20:20:50.837Z,63.25
2023-06-17T20:23:17.859Z,64.25
2023-06-17T20:25:44.982Z,65.91
2023-06-17T20:28:11.990Z,65.15
2023-06-17T20:30:39.003Z,65.97
2023-06-17T20:33:06.046Z,65.71
2023-06-17T20:35:33.159Z,64.42
2023-06-17T20:38:00.182Z,64.71
2023-06-17T20:40:28.022Z,63.73
2023-06-17T20:42:55.093Z,65.80
2023-06-17T20:45:22.149Z,65.77
2023-06-17T20:47:49.232Z,65.90
2023-06-17T20:50:16.636Z,67.17
2023-06-17T20:52:43.615Z,69.03
2023-06-17T20:55:10.880Z,69.05
2023-06-17T20:57:38.041Z,72.71
2023-06-17T21:00:05.992Z,71.48
2023-06-17T21:02:33.077Z,73.41
2023-06-17T21:05:00.276Z,75.23
2023-06-17T21:07:27.365Z,74.08
2023-06-17T21:09:54.860Z,73.70
2023-06-17T21:12:22.157Z,73.66
2023-06-17T21:14:49.261Z,75.28
2023-06-17T21:17:16.949Z,74.99
2023-06-17T21:19:43.997Z,74.91
2023-06-17T21:22:11.048Z,75.44
2023-06-17T21:24:38.650Z,76.41
2023-06-17T21:27:10.420Z,78.89
2023-06-17T21:29:41.367Z,76.22
2023-06-17T21:32:11.759Z,80.19
2023-06-17T21:34:38.853Z,81.34
2023-06-17T21:37:06.208Z,81.49
2023-06-17T21:39:33.273Z,83.12
2023-06-17T21:42:00.614Z,82.69
2023-06-17T21:44:27.658Z,86.10
2023-06-17T21:46:54.743Z,84.92
2023-06-17T21:49:21.857Z,86.01
2023-06-17T21:51:50.034Z,87.05
2023-06-17T21:54:17.257Z,86.80
2023-06-17T21:56:44.284Z,83.91
2023-06-17T21:59:11.325Z,84.01
2023-06-17T22:01:38.424Z,84.79
2023-06-17T22:04:05.744Z,84.66
2023-06-17T22:06:32.923Z,85.60
2023-06-17T22:09:00.013Z,86.38
2023-06-17T22:11:27.021Z,88.14
2023-06-17T22:13:54.090Z,89.98
2023-06-17T22:16:21.234Z,90.20
2023-06-17T22:18:48.262Z,90.17
2023-06-17T22:21:15.381Z,91.13
2023-06-17T22:23:42.455Z,92.74
2023-06-17T22:26:09.418Z,93.78
2023-06-17T22:28:36.556Z,93.93
2023-06-17T22:31:03.567Z,94.24
2023-06-17T22:33:30.727Z,94.49
2023-06-17T22:35:57.778Z,96.75
2023-06-17T22:38:24.860Z,92.58
2023-06-17T22:40:51.907Z,93.68
2023-06-17T22:43:20.640Z,93.18
2023-06-17T22:45:48.115Z,93.86
2023-06-17T22:48:15.122Z,94.16
2023-06-17T22:50:42.498Z,94.99
2023-06-17T22:53:09.734Z,95.84
2023-06-17T22:55:37.677Z,96.83
2023-06-17T22:58:04.904Z,98.37
2023-06-17T23:00:31.938Z,99.83
2023-06-17T23:02:59.017Z,100.00
2023-06-17T23:05:26.068Z,100.00
2023-06-17T23:07:53.144Z,100.00
2023-06-17T23:10:20.755Z,100.00
2023-06-17T23:12:48.061Z,100.00
2023-06-17T23:15:15.088Z,100.00
2023-06-17T23:17:42.140Z,100.00
2023-06-17T23:20:09.606Z,100.00
2023-06-17T23:22:36.994Z,100.00
2023-06-17T23:25:08.110Z,100.00
2023-06-17T23:27:35.660Z,100.00
2023-06-17T23:30:03.002Z,100.00
2023-06-17T23:32:30.086Z,100.00
2023-06-17T23:34:57.463Z,100.00
2023-06-17T23:37:26.527Z,100.00
2023-06-17T23:39:53.780Z,100.00
2023-06-17T23:42:20.896Z,100.00
2023-06-17T23:44:49.499Z,100.00
2023-06-17T23:47:18.482Z,100.00
2023-06-17T23:49:46.384Z,100.00
2023-06-17T23:52:14.045Z,100.00
2023-06-17T23:54:41.932Z,100.00
2023-06-17T23:57:09.034Z,100.00
2023-06-17T23:59:36.921Z,100.00
